sensor_id;sensor_type;location;lat;lon;timestamp;P1;durP1;ratioP1;P2;durP2;ratioP2
75576;SDS011;64157;50.138;14.544;2022-10-31T00:01:21;110.75;;;25.65;;
75576;SDS011;64157;50.138;14.544;2022-10-31T00:03:55;87.97;;;24.17;;
75576;SDS011;64157;50.138;14.544;2022-10-31T00:06:21;93.50;;;24.88;;
75576;SDS011;64157;50.138;14.544;2022-10-31T00:08:47;105.68;;;26.48;;
75576;SDS011;64157;50.138;14.544;2022-10-31T00:13:42;86.03;;;25.55;;
75576;SDS011;64157;50.138;14.544;2022-10-31T00:16:17;90.82;;;27.38;;
75576;SDS011;64157;50.138;14.544;2022-10-31T00:18:48;77.25;;;26.38;;
75576;SDS011;64157;50.138;14.544;2022-10-31T00:21:14;114.45;;;28.77;;
75576;SDS011;64157;50.138;14.544;2022-10-31T00:23:40;74.32;;;25.67;;
75576;SDS011;64157;50.138;14.544;2022-10-31T00:26:05;75.00;;;23.13;;
75576;SDS011;64157;50.138;14.544;2022-10-31T00:28:32;73.65;;;22.70;;
75576;SDS011;64157;50.138;14.544;2022-10-31T00:30:58;115.38;;;24.48;;
75576;SDS011;64157;50.138;14.544;2022-10-31T00:33:32;109.90;;;25.80;;
75576;SDS011;64157;50.138;14.544;2022-10-31T00:35:59;81.07;;;22.30;;
75576;SDS011;64157;50.138;14.544;2022-10-31T00:38:24;94.65;;;23.48;;
75576;SDS011;64157;50.138;14.544;2022-10-31T00:40:50;80.55;;;23.52;;
75576;SDS011;64157;50.138;14.544;2022-10-31T00:43:15;100.43;;;24.27;;
75576;SDS011;64157;50.138;14.544;2022-10-31T00:45:41;84.70;;;22.30;;
75576;SDS011;64157;50.138;14.544;2022-10-31T00:48:07;65.93;;;22.33;;
75576;SDS011;64157;50.138;14.544;2022-10-31T00:50:33;72.13;;;22.30;;
75576;SDS011;64157;50.138;14.544;2022-10-31T00:52:59;78.30;;;22.88;;
75576;SDS011;64157;50.138;14.544;2022-10-31T00:55:24;74.53;;;22.20;;
75576;SDS011;64157;50.138;14.544;2022-10-31T00:57:50;70.10;;;23.45;;
75576;SDS011;64157;50.138;14.544;2022-10-31T01:00:15;69.47;;;22.15;;
75576;SDS011;64157;50.138;14.544;2022-10-31T01:02:41;86.35;;;22.27;;
75576;SDS011;64157;50.138;14.544;2022-10-31T01:05:06;73.65;;;22.23;;
75576;SDS011;64157;50.138;14.544;2022-10-31T01:07:35;63.15;;;21.95;;
75576;SDS011;64157;50.138;14.544;2022-10-31T01:10:01;64.70;;;20.23;;
75576;SDS011;64157;50.138;14.544;2022-10-31T01:12:27;54.20;;;20.55;;
75576;SDS011;64157;50.138;14.544;2022-10-31T01:14:52;74.05;;;21.88;;
75576;SDS011;64157;50.138;14.544;2022-10-31T01:17:17;68.07;;;23.27;;
75576;SDS011;64157;50.138;14.544;2022-10-31T01:19:43;105.95;;;23.92;;
75576;SDS011;64157;50.138;14.544;2022-10-31T01:22:09;70.25;;;22.17;;
75576;SDS011;64157;50.138;14.544;2022-10-31T01:24:35;66.80;;;21.05;;
75576;SDS011;64157;50.138;14.544;2022-10-31T01:27:00;105.30;;;23.42;;
75576;SDS011;64157;50.138;14.544;2022-10-31T01:29:25;91.15;;;21.75;;
75576;SDS011;64157;50.138;14.544;2022-10-31T01:31:51;94.43;;;22.77;;
75576;SDS011;64157;50.138;14.544;2022-10-31T01:34:16;67.75;;;21.08;;
75576;SDS011;64157;50.138;14.544;2022-10-31T01:36:42;119.22;;;23.75;;
75576;SDS011;64157;50.138;14.544;2022-10-31T01:39:14;139.38;;;25.27;;
75576;SDS011;64157;50.138;14.544;2022-10-31T01:41:44;85.35;;;22.38;;
75576;SDS011;64157;50.138;14.544;2022-10-31T01:49:13;43.28;;;18.90;;
75576;SDS011;64157;50.138;14.544;2022-10-31T01:51:55;76.22;;;22.08;;
75576;SDS011;64157;50.138;14.544;2022-10-31T01:54:31;57.00;;;21.23;;
75576;SDS011;64157;50.138;14.544;2022-10-31T01:57:03;75.88;;;21.77;;
75576;SDS011;64157;50.138;14.544;2022-10-31T01:59:31;60.17;;;20.70;;
75576;SDS011;64157;50.138;14.544;2022-10-31T02:02:02;121.03;;;28.00;;
75576;SDS011;64157;50.138;14.544;2022-10-31T02:04:28;107.13;;;25.00;;
75576;SDS011;64157;50.138;14.544;2022-10-31T02:07:04;113.20;;;26.55;;
75576;SDS011;64157;50.138;14.544;2022-10-31T02:09:43;152.48;;;28.45;;
75576;SDS011;64157;50.138;14.544;2022-10-31T02:12:11;145.50;;;29.90;;
75576;SDS011;64157;50.138;14.544;2022-10-31T02:14:38;180.50;;;32.00;;
75576;SDS011;64157;50.138;14.544;2022-10-31T02:17:05;164.18;;;32.58;;
75576;SDS011;64157;50.138;14.544;2022-10-31T02:19:34;418.52;;;41.75;;
75576;SDS011;64157;50.138;14.544;2022-10-31T02:22:22;261.00;;;37.80;;
75576;SDS011;64157;50.138;14.544;2022-10-31T02:35:53;227.48;;;34.15;;
75576;SDS011;64157;50.138;14.544;2022-10-31T02:46:48;147.90;;;31.15;;
75576;SDS011;64157;50.138;14.544;2022-10-31T02:49:28;203.23;;;34.70;;
75576;SDS011;64157;50.138;14.544;2022-10-31T02:52:02;312.85;;;41.20;;
75576;SDS011;64157;50.138;14.544;2022-10-31T02:54:39;250.20;;;40.03;;
75576;SDS011;64157;50.138;14.544;2022-10-31T02:57:06;239.48;;;38.55;;
75576;SDS011;64157;50.138;14.544;2022-10-31T02:59:33;238.82;;;38.53;;
75576;SDS011;64157;50.138;14.544;2022-10-31T03:02:04;276.92;;;40.65;;
75576;SDS011;64157;50.138;14.544;2022-10-31T03:04:41;234.15;;;43.75;;
75576;SDS011;64157;50.138;14.544;2022-10-31T03:07:36;367.15;;;41.17;;
75576;SDS011;64157;50.138;14.544;2022-10-31T03:13:01;216.55;;;36.05;;
75576;SDS011;64157;50.138;14.544;2022-10-31T03:15:35;287.58;;;37.70;;
75576;SDS011;64157;50.138;14.544;2022-10-31T03:20:59;287.58;;;37.53;;
75576;SDS011;64157;50.138;14.544;2022-10-31T03:23:40;271.98;;;37.03;;
75576;SDS011;64157;50.138;14.544;2022-10-31T03:26:08;218.10;;;34.50;;
75576;SDS011;64157;50.138;14.544;2022-10-31T03:28:38;209.85;;;36.85;;
75576;SDS011;64157;50.138;14.544;2022-10-31T03:31:11;331.92;;;39.53;;
75576;SDS011;64157;50.138;14.544;2022-10-31T03:33:42;344.85;;;41.50;;
75576;SDS011;64157;50.138;14.544;2022-10-31T03:36:10;274.85;;;42.22;;
75576;SDS011;64157;50.138;14.544;2022-10-31T03:38:38;277.75;;;42.75;;
75576;SDS011;64157;50.138;14.544;2022-10-31T03:41:06;192.57;;;38.75;;
75576;SDS011;64157;50.138;14.544;2022-10-31T03:43:40;380.77;;;49.53;;
75576;SDS011;64157;50.138;14.544;2022-10-31T03:46:11;193.93;;;39.25;;
75576;SDS011;64157;50.138;14.544;2022-10-31T03:48:37;257.92;;;39.65;;
75576;SDS011;64157;50.138;14.544;2022-10-31T03:53:52;187.90;;;35.28;;
75576;SDS011;64157;50.138;14.544;2022-10-31T03:56:43;309.83;;;38.53;;
75576;SDS011;64157;50.138;14.544;2022-10-31T03:59:17;224.10;;;35.25;;
75576;SDS011;64157;50.138;14.544;2022-10-31T04:01:52;179.27;;;29.63;;
75576;SDS011;64157;50.138;14.544;2022-10-31T04:04:22;112.13;;;27.80;;
75576;SDS011;64157;50.138;14.544;2022-10-31T04:06:47;165.60;;;30.52;;
75576;SDS011;64157;50.138;14.544;2022-10-31T04:09:15;269.45;;;36.75;;
75576;SDS011;64157;50.138;14.544;2022-10-31T04:11:45;232.52;;;34.03;;
75576;SDS011;64157;50.138;14.544;2022-10-31T04:14:14;201.07;;;34.47;;
75576;SDS011;64157;50.138;14.544;2022-10-31T04:16:40;167.40;;;29.08;;
75576;SDS011;64157;50.138;14.544;2022-10-31T04:19:08;172.93;;;30.13;;
75576;SDS011;64157;50.138;14.544;2022-10-31T04:21:34;164.20;;;31.30;;
75576;SDS011;64157;50.138;14.544;2022-10-31T04:23:59;164.70;;;33.53;;
75576;SDS011;64157;50.138;14.544;2022-10-31T04:26:25;130.02;;;30.13;;
75576;SDS011;64157;50.138;14.544;2022-10-31T04:28:50;129.60;;;30.38;;
75576;SDS011;64157;50.138;14.544;2022-10-31T04:31:16;107.47;;;30.13;;
75576;SDS011;64157;50.138;14.544;2022-10-31T04:33:41;124.40;;;31.02;;
75576;SDS011;64157;50.138;14.544;2022-10-31T04:36:07;103.97;;;31.42;;
75576;SDS011;64157;50.138;14.544;2022-10-31T04:38:33;117.10;;;31.27;;
75576;SDS011;64157;50.138;14.544;2022-10-31T04:40:58;108.47;;;29.58;;
75576;SDS011;64157;50.138;14.544;2022-10-31T04:43:24;86.03;;;28.13;;
75576;SDS011;64157;50.138;14.544;2022-10-31T04:45:49;95.88;;;31.13;;
75576;SDS011;64157;50.138;14.544;2022-10-31T04:48:15;107.53;;;27.05;;
75576;SDS011;64157;50.138;14.544;2022-10-31T04:50:40;88.47;;;27.52;;
75576;SDS011;64157;50.138;14.544;2022-10-31T04:53:06;76.07;;;25.27;;
75576;SDS011;64157;50.138;14.544;2022-10-31T04:55:31;97.95;;;25.55;;
75576;SDS011;64157;50.138;14.544;2022-10-31T04:57:57;86.68;;;24.50;;
75576;SDS011;64157;50.138;14.544;2022-10-31T05:00:22;66.40;;;23.48;;
75576;SDS011;64157;50.138;14.544;2022-10-31T05:02:49;58.50;;;25.67;;
75576;SDS011;64157;50.138;14.544;2022-10-31T05:07:46;64.93;;;24.42;;
75576;SDS011;64157;50.138;14.544;2022-10-31T05:10:16;101.93;;;27.73;;
75576;SDS011;64157;50.138;14.544;2022-10-31T05:12:50;55.05;;;26.58;;
75576;SDS011;64157;50.138;14.544;2022-10-31T05:15:17;85.03;;;27.23;;
75576;SDS011;64157;50.138;14.544;2022-10-31T05:17:44;77.05;;;27.80;;
75576;SDS011;64157;50.138;14.544;2022-10-31T05:20:11;78.22;;;28.13;;
75576;SDS011;64157;50.138;14.544;2022-10-31T05:22:41;66.57;;;26.42;;
75576;SDS011;64157;50.138;14.544;2022-10-31T05:25:07;52.10;;;24.80;;
75576;SDS011;64157;50.138;14.544;2022-10-31T05:27:34;51.45;;;24.15;;
75576;SDS011;64157;50.138;14.544;2022-10-31T05:29:59;60.13;;;26.90;;
75576;SDS011;64157;50.138;14.544;2022-10-31T05:32:24;95.07;;;27.35;;
75576;SDS011;64157;50.138;14.544;2022-10-31T05:34:50;91.80;;;28.17;;
75576;SDS011;64157;50.138;14.544;2022-10-31T05:37:22;93.82;;;29.10;;
75576;SDS011;64157;50.138;14.544;2022-10-31T05:39:50;51.75;;;22.52;;
75576;SDS011;64157;50.138;14.544;2022-10-31T05:42:15;200.93;;;29.30;;
75576;SDS011;64157;50.138;14.544;2022-10-31T05:44:41;177.90;;;28.70;;
75576;SDS011;64157;50.138;14.544;2022-10-31T05:47:06;176.38;;;27.73;;
75576;SDS011;64157;50.138;14.544;2022-10-31T05:49:32;303.60;;;38.88;;
75576;SDS011;64157;50.138;14.544;2022-10-31T05:51:57;252.43;;;34.42;;
75576;SDS011;64157;50.138;14.544;2022-10-31T05:54:23;190.18;;;32.95;;
75576;SDS011;64157;50.138;14.544;2022-10-31T05:56:48;190.82;;;31.25;;
75576;SDS011;64157;50.138;14.544;2022-10-31T05:59:13;175.27;;;30.83;;
75576;SDS011;64157;50.138;14.544;2022-10-31T06:01:39;113.30;;;27.48;;
75576;SDS011;64157;50.138;14.544;2022-10-31T06:04:04;269.00;;;38.58;;
75576;SDS011;64157;50.138;14.544;2022-10-31T06:06:29;268.98;;;36.63;;
75576;SDS011;64157;50.138;14.544;2022-10-31T06:08:55;179.40;;;31.65;;
75576;SDS011;64157;50.138;14.544;2022-10-31T06:11:21;87.10;;;24.42;;
75576;SDS011;64157;50.138;14.544;2022-10-31T06:13:46;151.85;;;33.13;;
75576;SDS011;64157;50.138;14.544;2022-10-31T06:16:12;109.25;;;28.73;;
75576;SDS011;64157;50.138;14.544;2022-10-31T06:18:37;128.82;;;29.92;;
75576;SDS011;64157;50.138;14.544;2022-10-31T06:21:02;298.92;;;38.28;;
75576;SDS011;64157;50.138;14.544;2022-10-31T06:23:28;178.52;;;34.05;;
75576;SDS011;64157;50.138;14.544;2022-10-31T06:25:53;201.20;;;35.67;;
75576;SDS011;64157;50.138;14.544;2022-10-31T06:28:20;251.18;;;37.05;;
75576;SDS011;64157;50.138;14.544;2022-10-31T06:30:46;120.72;;;30.55;;
75576;SDS011;64157;50.138;14.544;2022-10-31T06:33:11;153.65;;;36.58;;
75576;SDS011;64157;50.138;14.544;2022-10-31T06:35:44;237.85;;;36.72;;
75576;SDS011;64157;50.138;14.544;2022-10-31T06:38:14;132.90;;;30.33;;
75576;SDS011;64157;50.138;14.544;2022-10-31T06:40:40;177.10;;;32.35;;
75576;SDS011;64157;50.138;14.544;2022-10-31T06:43:06;117.82;;;29.15;;
75576;SDS011;64157;50.138;14.544;2022-10-31T06:45:31;101.85;;;27.83;;
75576;SDS011;64157;50.138;14.544;2022-10-31T06:47:57;169.43;;;31.77;;
75576;SDS011;64157;50.138;14.544;2022-10-31T06:50:22;145.65;;;28.30;;
75576;SDS011;64157;50.138;14.544;2022-10-31T06:52:55;87.68;;;25.05;;
75576;SDS011;64157;50.138;14.544;2022-10-31T06:55:22;110.05;;;25.48;;
75576;SDS011;64157;50.138;14.544;2022-10-31T07:00:17;180.50;;;30.02;;
75576;SDS011;64157;50.138;14.544;2022-10-31T07:02:43;126.38;;;26.40;;
75576;SDS011;64157;50.138;14.544;2022-10-31T07:05:08;58.58;;;22.63;;
75576;SDS011;64157;50.138;14.544;2022-10-31T07:07:34;90.43;;;25.35;;
75576;SDS011;64157;50.138;14.544;2022-10-31T07:09:59;134.18;;;27.20;;
75576;SDS011;64157;50.138;14.544;2022-10-31T07:12:24;96.63;;;25.17;;
75576;SDS011;64157;50.138;14.544;2022-10-31T07:14:50;111.82;;;27.05;;
75576;SDS011;64157;50.138;14.544;2022-10-31T07:17:15;85.35;;;25.30;;
75576;SDS011;64157;50.138;14.544;2022-10-31T07:19:41;150.93;;;25.08;;
75576;SDS011;64157;50.138;14.544;2022-10-31T07:22:06;63.08;;;22.52;;
75576;SDS011;64157;50.138;14.544;2022-10-31T07:24:31;127.20;;;28.33;;
75576;SDS011;64157;50.138;14.544;2022-10-31T07:26:57;107.03;;;27.02;;
75576;SDS011;64157;50.138;14.544;2022-10-31T07:29:22;128.05;;;27.23;;
75576;SDS011;64157;50.138;14.544;2022-10-31T07:31:48;174.52;;;29.70;;
75576;SDS011;64157;50.138;14.544;2022-10-31T07:34:13;125.45;;;25.45;;
75576;SDS011;64157;50.138;14.544;2022-10-31T07:36:39;149.18;;;25.60;;
75576;SDS011;64157;50.138;14.544;2022-10-31T07:39:04;117.53;;;26.75;;
75576;SDS011;64157;50.138;14.544;2022-10-31T07:41:30;51.88;;;21.60;;
75576;SDS011;64157;50.138;14.544;2022-10-31T07:43:55;108.65;;;25.65;;
75576;SDS011;64157;50.138;14.544;2022-10-31T07:46:21;93.97;;;23.75;;
75576;SDS011;64157;50.138;14.544;2022-10-31T07:48:47;120.18;;;25.77;;
75576;SDS011;64157;50.138;14.544;2022-10-31T07:51:12;194.55;;;27.30;;
75576;SDS011;64157;50.138;14.544;2022-10-31T07:53:37;130.50;;;25.52;;
75576;SDS011;64157;50.138;14.544;2022-10-31T07:56:03;117.72;;;25.17;;
75576;SDS011;64157;50.138;14.544;2022-10-31T07:58:28;126.63;;;26.52;;
75576;SDS011;64157;50.138;14.544;2022-10-31T08:00:54;92.78;;;23.13;;
75576;SDS011;64157;50.138;14.544;2022-10-31T08:03:19;134.52;;;23.17;;
75576;SDS011;64157;50.138;14.544;2022-10-31T08:05:45;76.15;;;22.65;;
75576;SDS011;64157;50.138;14.544;2022-10-31T08:08:11;123.10;;;24.20;;
75576;SDS011;64157;50.138;14.544;2022-10-31T08:10:38;185.18;;;26.23;;
75576;SDS011;64157;50.138;14.544;2022-10-31T08:13:06;101.00;;;20.70;;
75576;SDS011;64157;50.138;14.544;2022-10-31T08:15:34;71.70;;;20.50;;
75576;SDS011;64157;50.138;14.544;2022-10-31T08:18:03;137.85;;;24.02;;
75576;SDS011;64157;50.138;14.544;2022-10-31T08:20:29;138.77;;;25.63;;
75576;SDS011;64157;50.138;14.544;2022-10-31T08:22:55;109.53;;;23.25;;
75576;SDS011;64157;50.138;14.544;2022-10-31T08:25:25;104.95;;;20.58;;
75576;SDS011;64157;50.138;14.544;2022-10-31T08:27:52;129.35;;;20.75;;
75576;SDS011;64157;50.138;14.544;2022-10-31T08:30:19;94.07;;;21.58;;
75576;SDS011;64157;50.138;14.544;2022-10-31T08:32:46;78.60;;;21.05;;
75576;SDS011;64157;50.138;14.544;2022-10-31T08:35:12;114.32;;;23.60;;
75576;SDS011;64157;50.138;14.544;2022-10-31T08:37:37;88.63;;;23.27;;
75576;SDS011;64157;50.138;14.544;2022-10-31T08:40:03;71.60;;;20.70;;
75576;SDS011;64157;50.138;14.544;2022-10-31T08:42:29;113.53;;;22.38;;
75576;SDS011;64157;50.138;14.544;2022-10-31T08:44:54;110.85;;;20.33;;
75576;SDS011;64157;50.138;14.544;2022-10-31T08:47:20;105.97;;;22.33;;
75576;SDS011;64157;50.138;14.544;2022-10-31T08:49:45;83.10;;;21.80;;
75576;SDS011;64157;50.138;14.544;2022-10-31T08:52:11;89.68;;;21.30;;
75576;SDS011;64157;50.138;14.544;2022-10-31T08:54:36;94.47;;;20.98;;
75576;SDS011;64157;50.138;14.544;2022-10-31T08:57:01;73.13;;;20.40;;
75576;SDS011;64157;50.138;14.544;2022-10-31T08:59:27;109.30;;;22.75;;
75576;SDS011;64157;50.138;14.544;2022-10-31T09:01:52;87.03;;;20.50;;
75576;SDS011;64157;50.138;14.544;2022-10-31T09:04:18;69.95;;;20.45;;
75576;SDS011;64157;50.138;14.544;2022-10-31T09:06:43;78.22;;;21.30;;
75576;SDS011;64157;50.138;14.544;2022-10-31T09:09:09;71.22;;;21.10;;
75576;SDS011;64157;50.138;14.544;2022-10-31T09:11:34;68.35;;;20.98;;
75576;SDS011;64157;50.138;14.544;2022-10-31T09:14:00;62.13;;;20.73;;
75576;SDS011;64157;50.138;14.544;2022-10-31T09:16:25;64.93;;;19.98;;
75576;SDS011;64157;50.138;14.544;2022-10-31T09:18:51;66.90;;;22.85;;
75576;SDS011;64157;50.138;14.544;2022-10-31T09:21:16;113.75;;;23.88;;
75576;SDS011;64157;50.138;14.544;2022-10-31T09:23:41;70.05;;;20.25;;
75576;SDS011;64157;50.138;14.544;2022-10-31T09:26:07;85.75;;;20.33;;
75576;SDS011;64157;50.138;14.544;2022-10-31T09:28:32;46.67;;;19.40;;
75576;SDS011;64157;50.138;14.544;2022-10-31T09:30:58;38.75;;;18.40;;
75576;SDS011;64157;50.138;14.544;2022-10-31T09:33:23;51.47;;;19.63;;
75576;SDS011;64157;50.138;14.544;2022-10-31T09:35:49;57.95;;;18.30;;
75576;SDS011;64157;50.138;14.544;2022-10-31T09:38:15;46.35;;;18.02;;
75576;SDS011;64157;50.138;14.544;2022-10-31T09:46:12;51.00;;;17.77;;
75576;SDS011;64157;50.138;14.544;2022-10-31T09:51:22;102.15;;;18.80;;
75576;SDS011;64157;50.138;14.544;2022-10-31T09:56:22;76.03;;;18.38;;
75576;SDS011;64157;50.138;14.544;2022-10-31T09:58:56;54.83;;;17.88;;
75576;SDS011;64157;50.138;14.544;2022-10-31T10:04:09;48.88;;;17.33;;
75576;SDS011;64157;50.138;14.544;2022-10-31T10:06:38;61.85;;;18.42;;
75576;SDS011;64157;50.138;14.544;2022-10-31T10:09:09;49.42;;;18.20;;
75576;SDS011;64157;50.138;14.544;2022-10-31T10:11:39;52.97;;;17.30;;
75576;SDS011;64157;50.138;14.544;2022-10-31T10:14:24;48.75;;;17.70;;
75576;SDS011;64157;50.138;14.544;2022-10-31T10:28:03;32.40;;;17.27;;
75576;SDS011;64157;50.138;14.544;2022-10-31T10:30:53;38.70;;;16.40;;
75576;SDS011;64157;50.138;14.544;2022-10-31T10:35:55;35.88;;;17.85;;
75576;SDS011;64157;50.138;14.544;2022-10-31T10:41:21;48.53;;;17.23;;
75576;SDS011;64157;50.138;14.544;2022-10-31T10:43:51;54.70;;;18.02;;
75576;SDS011;64157;50.138;14.544;2022-10-31T11:00:15;84.60;;;18.05;;
75576;SDS011;64157;50.138;14.544;2022-10-31T11:02:43;40.80;;;19.63;;
75576;SDS011;64157;50.138;14.544;2022-10-31T11:05:14;44.55;;;18.70;;
75576;SDS011;64157;50.138;14.544;2022-10-31T11:07:53;34.63;;;17.52;;
75576;SDS011;64157;50.138;14.544;2022-10-31T11:10:19;41.15;;;16.73;;
75576;SDS011;64157;50.138;14.544;2022-10-31T11:12:56;25.60;;;16.90;;
75576;SDS011;64157;50.138;14.544;2022-10-31T11:15:29;53.60;;;16.83;;
75576;SDS011;64157;50.138;14.544;2022-10-31T11:17:58;27.55;;;16.92;;
75576;SDS011;64157;50.138;14.544;2022-10-31T11:23:15;43.45;;;17.70;;
75576;SDS011;64157;50.138;14.544;2022-10-31T11:28:16;32.70;;;20.10;;
75576;SDS011;64157;50.138;14.544;2022-10-31T11:30:43;46.13;;;21.27;;
75576;SDS011;64157;50.138;14.544;2022-10-31T11:33:16;51.35;;;19.88;;
75576;SDS011;64157;50.138;14.544;2022-10-31T11:35:46;31.13;;;19.50;;
75576;SDS011;64157;50.138;14.544;2022-10-31T11:38:20;32.60;;;19.88;;
75576;SDS011;64157;50.138;14.544;2022-10-31T11:40:55;37.42;;;19.38;;
75576;SDS011;64157;50.138;14.544;2022-10-31T11:43:31;33.30;;;19.70;;
75576;SDS011;64157;50.138;14.544;2022-10-31T11:45:57;33.75;;;19.90;;
75576;SDS011;64157;50.138;14.544;2022-10-31T11:48:23;32.38;;;20.63;;
75576;SDS011;64157;50.138;14.544;2022-10-31T11:50:56;28.30;;;18.48;;
75576;SDS011;64157;50.138;14.544;2022-10-31T11:53:27;39.30;;;19.80;;
75576;SDS011;64157;50.138;14.544;2022-10-31T11:56:02;41.17;;;19.23;;
75576;SDS011;64157;50.138;14.544;2022-10-31T11:58:37;42.92;;;19.63;;
75576;SDS011;64157;50.138;14.544;2022-10-31T12:01:03;41.17;;;19.35;;
75576;SDS011;64157;50.138;14.544;2022-10-31T12:06:42;29.23;;;19.10;;
75576;SDS011;64157;50.138;14.544;2022-10-31T12:17:14;31.90;;;17.83;;
75576;SDS011;64157;50.138;14.544;2022-10-31T12:25:34;36.10;;;20.67;;
75576;SDS011;64157;50.138;14.544;2022-10-31T12:45:37;65.13;;;22.65;;
75576;SDS011;64157;50.138;14.544;2022-10-31T12:59:46;35.45;;;20.80;;
75576;SDS011;64157;50.138;14.544;2022-10-31T13:06:24;37.83;;;20.10;;
75576;SDS011;64157;50.138;14.544;2022-10-31T13:11:59;43.72;;;22.98;;
75576;SDS011;64157;50.138;14.544;2022-10-31T13:14:36;45.80;;;22.50;;
75576;SDS011;64157;50.138;14.544;2022-10-31T13:17:03;33.90;;;21.80;;
75576;SDS011;64157;50.138;14.544;2022-10-31T13:19:38;42.22;;;23.42;;
75576;SDS011;64157;50.138;14.544;2022-10-31T13:24:57;43.05;;;24.92;;
75576;SDS011;64157;50.138;14.544;2022-10-31T14:41:31;119.68;;;24.17;;
75576;SDS011;64157;50.138;14.544;2022-10-31T14:55:25;121.50;;;24.23;;
75576;SDS011;64157;50.138;14.544;2022-10-31T14:57:59;199.77;;;28.30;;
75576;SDS011;64157;50.138;14.544;2022-10-31T15:01:47;115.93;;;23.17;;
75576;SDS011;64157;50.138;14.544;2022-10-31T15:05:09;113.78;;;24.10;;
75576;SDS011;64157;50.138;14.544;2022-10-31T15:11:06;157.70;;;25.85;;
75576;SDS011;64157;50.138;14.544;2022-10-31T15:14:17;191.80;;;26.70;;
75576;SDS011;64157;50.138;14.544;2022-10-31T15:17:34;279.45;;;34.67;;
75576;SDS011;64157;50.138;14.544;2022-10-31T15:37:54;202.45;;;28.98;;
75576;SDS011;64157;50.138;14.544;2022-10-31T15:44:21;236.52;;;27.10;;
75576;SDS011;64157;50.138;14.544;2022-10-31T16:04:19;209.82;;;27.45;;
75576;SDS011;64157;50.138;14.544;2022-10-31T16:11:34;149.55;;;36.00;;
75576;SDS011;64157;50.138;14.544;2022-10-31T16:21:02;227.07;;;37.50;;
75576;SDS011;64157;50.138;14.544;2022-10-31T16:40:44;146.35;;;25.60;;
75576;SDS011;64157;50.138;14.544;2022-10-31T16:43:20;195.98;;;30.63;;
75576;SDS011;64157;50.138;14.544;2022-10-31T16:55:16;209.70;;;32.70;;
75576;SDS011;64157;50.138;14.544;2022-10-31T17:00:44;185.07;;;33.85;;
75576;SDS011;64157;50.138;14.544;2022-10-31T17:03:48;145.02;;;30.60;;
75576;SDS011;64157;50.138;14.544;2022-10-31T17:06:45;145.32;;;33.63;;
75576;SDS011;64157;50.138;14.544;2022-10-31T18:05:04;145.43;;;27.98;;
75576;SDS011;64157;50.138;14.544;2022-10-31T18:10:22;191.50;;;32.15;;
75576;SDS011;64157;50.138;14.544;2022-10-31T18:12:50;163.98;;;29.67;;
75576;SDS011;64157;50.138;14.544;2022-10-31T18:15:28;158.38;;;27.63;;
75576;SDS011;64157;50.138;14.544;2022-10-31T18:17:53;148.95;;;30.08;;
75576;SDS011;64157;50.138;14.544;2022-10-31T18:20:19;31.42;;;14.90;;
75576;SDS011;64157;50.138;14.544;2022-10-31T18:22:44;71.57;;;20.73;;
75576;SDS011;64157;50.138;14.544;2022-10-31T18:25:15;203.82;;;34.53;;
75576;SDS011;64157;50.138;14.544;2022-10-31T18:27:40;179.93;;;32.50;;
75576;SDS011;64157;50.138;14.544;2022-10-31T18:30:06;193.45;;;33.88;;
75576;SDS011;64157;50.138;14.544;2022-10-31T18:32:35;222.57;;;34.83;;
75576;SDS011;64157;50.138;14.544;2022-10-31T18:41:47;118.07;;;25.92;;
75576;SDS011;64157;50.138;14.544;2022-10-31T18:44:13;191.23;;;28.30;;
75576;SDS011;64157;50.138;14.544;2022-10-31T18:53:10;214.25;;;29.98;;
75576;SDS011;64157;50.138;14.544;2022-10-31T18:58:59;166.43;;;28.48;;
75576;SDS011;64157;50.138;14.544;2022-10-31T19:01:26;161.68;;;31.40;;
75576;SDS011;64157;50.138;14.544;2022-10-31T19:03:53;208.77;;;34.25;;
75576;SDS011;64157;50.138;14.544;2022-10-31T19:06:21;227.07;;;35.58;;
75576;SDS011;64157;50.138;14.544;2022-10-31T19:08:47;188.40;;;33.83;;
75576;SDS011;64157;50.138;14.544;2022-10-31T19:11:13;175.75;;;32.47;;
75576;SDS011;64157;50.138;14.544;2022-10-31T19:13:40;194.18;;;31.27;;
75576;SDS011;64157;50.138;14.544;2022-10-31T19:16:08;160.98;;;30.67;;
75576;SDS011;64157;50.138;14.544;2022-10-31T19:18:35;190.27;;;32.17;;
75576;SDS011;64157;50.138;14.544;2022-10-31T19:21:19;228.52;;;31.80;;
75576;SDS011;64157;50.138;14.544;2022-10-31T19:23:45;250.25;;;32.03;;
75576;SDS011;64157;50.138;14.544;2022-10-31T19:26:10;197.60;;;31.50;;
75576;SDS011;64157;50.138;14.544;2022-10-31T19:28:37;238.38;;;31.77;;
75576;SDS011;64157;50.138;14.544;2022-10-31T19:31:04;206.73;;;30.17;;
75576;SDS011;64157;50.138;14.544;2022-10-31T19:33:30;231.60;;;33.20;;
75576;SDS011;64157;50.138;14.544;2022-10-31T19:36:03;253.05;;;34.78;;
75576;SDS011;64157;50.138;14.544;2022-10-31T19:38:37;267.25;;;33.40;;
75576;SDS011;64157;50.138;14.544;2022-10-31T19:41:14;224.98;;;31.30;;
75576;SDS011;64157;50.138;14.544;2022-10-31T19:43:42;203.85;;;31.00;;
75576;SDS011;64157;50.138;14.544;2022-10-31T19:46:09;245.20;;;32.33;;
75576;SDS011;64157;50.138;14.544;2022-10-31T19:48:36;223.60;;;30.52;;
75576;SDS011;64157;50.138;14.544;2022-10-31T19:51:10;172.63;;;29.48;;
75576;SDS011;64157;50.138;14.544;2022-10-31T19:53:38;231.20;;;31.95;;
75576;SDS011;64157;50.138;14.544;2022-10-31T19:56:14;235.00;;;30.27;;
75576;SDS011;64157;50.138;14.544;2022-10-31T19:58:41;245.27;;;29.60;;
75576;SDS011;64157;50.138;14.544;2022-10-31T20:03:39;288.52;;;34.33;;
75576;SDS011;64157;50.138;14.544;2022-10-31T20:06:07;185.10;;;28.65;;
75576;SDS011;64157;50.138;14.544;2022-10-31T20:08:39;219.60;;;33.22;;
75576;SDS011;64157;50.138;14.544;2022-10-31T20:11:04;104.45;;;22.88;;
75576;SDS011;64157;50.138;14.544;2022-10-31T20:13:30;256.73;;;33.28;;
75576;SDS011;64157;50.138;14.544;2022-10-31T20:15:57;272.98;;;34.65;;
75576;SDS011;64157;50.138;14.544;2022-10-31T20:18:24;194.45;;;30.92;;
75576;SDS011;64157;50.138;14.544;2022-10-31T20:20:50;236.43;;;34.42;;
75576;SDS011;64157;50.138;14.544;2022-10-31T20:23:17;187.20;;;31.88;;
75576;SDS011;64157;50.138;14.544;2022-10-31T20:25:46;202.73;;;30.63;;
75576;SDS011;64157;50.138;14.544;2022-10-31T20:30:38;246.10;;;32.58;;
75576;SDS011;64157;50.138;14.544;2022-10-31T20:33:04;207.82;;;33.65;;
75576;SDS011;64157;50.138;14.544;2022-10-31T20:35:29;255.43;;;32.58;;
75576;SDS011;64157;50.138;14.544;2022-10-31T20:37:55;230.57;;;29.92;;
75576;SDS011;64157;50.138;14.544;2022-10-31T20:40:20;194.15;;;31.60;;
75576;SDS011;64157;50.138;14.544;2022-10-31T20:42:46;237.45;;;35.65;;
75576;SDS011;64157;50.138;14.544;2022-10-31T20:45:12;181.43;;;31.38;;
75576;SDS011;64157;50.138;14.544;2022-10-31T20:47:37;201.95;;;30.73;;